Time;durP1;ratioP1;P1;durP2;ratioP2;P2;SDS_P1;SDS_P2;PMS_P1;PMS_P2;Temp;Humidity;BMP_temperature;BMP_pressure;BME280_temperature;BME280_humidity;BME280_pressure;Samples;Min_cycle;Max_cycle;Signal;HPM_P1;HPM_P2
2022/05/21 00:02:16;;;;;;;49.27;28.27;;;;;;;11.11;100.00;100763.16;4954460;28;20399;-71
2022/05/21 00:04:42;;;;;;;42.10;25.35;;;;;;;11.14;100.00;100778.03;4938291;28;20100;-70
2022/05/21 00:07:10;;;;;;;41.88;27.15;;;;;;;11.27;100.00;100789.06;4938185;28;20038;-70
2022/05/21 00:09:36;;;;;;;34.17;20.40;;;;;;;11.05;100.00;100792.38;4936564;28;20077;-70
2022/05/21 00:12:02;;;;;;;22.95;15.38;;;;;;;10.85;100.00;100790.00;4955428;28;20030;-73
2022/05/21 00:14:27;;;;;;;19.35;13.27;;;;;;;10.61;100.00;100776.59;4953985;28;20470;-72
2022/05/21 00:16:52;;;;;;;17.17;10.27;;;;;;;10.48;100.00;100769.03;4956467;28;20078;-71
2022/05/21 00:19:18;;;;;;;13.03;8.60;;;;;;;10.42;100.00;100772.31;4954251;28;20105;-70
2022/05/21 00:21:43;;;;;;;14.57;7.50;;;;;;;10.28;100.00;100771.09;4938114;28;20043;-71
2022/05/21 00:24:09;;;;;;;12.33;6.80;;;;;;;10.15;100.00;100763.50;4955205;28;20035;-69
2022/05/21 00:26:34;;;;;;;12.23;6.17;;;;;;;9.98;100.00;100759.09;4954325;28;20042;-69
2022/05/21 00:28:59;;;;;;;9.90;6.60;;;;;;;10.03;100.00;100773.63;4940277;28;20030;-72
2022/05/21 00:31:26;;;;;;;10.93;6.80;;;;;;;10.00;100.00;100779.28;4953689;28;20125;-71
2022/05/21 00:33:51;;;;;;;10.55;6.82;;;;;;;10.02;100.00;100777.31;4939803;28;20039;-72
2022/05/21 00:36:17;;;;;;;13.47;8.43;;;;;;;10.03;100.00;100791.47;4936611;28;20374;-70
2022/05/21 00:38:44;;;;;;;14.48;8.52;;;;;;;10.05;100.00;100786.81;4939975;28;20472;-71
2022/05/21 00:41:10;;;;;;;;;;;;;;;10.08;100.00;100789.16;4936633;28;20488;-70
2022/05/21 00:43:38;;;;;;;12.65;7.78;;;;;;;10.00;100.00;100808.63;4935926;28;19917;-72
2022/05/21 00:46:07;;;;;;;10.15;7.25;;;;;;;9.95;100.00;100818.94;4946392;28;20047;-70
2022/05/21 00:48:34;;;;;;;12.43;6.03;;;;;;;9.69;100.00;100822.41;4935048;28;20026;-71
2022/05/21 00:51:00;;;;;;;10.88;5.60;;;;;;;9.41;100.00;100826.16;4947705;28;20109;-71
2022/05/21 00:53:27;;;;;;;13.10;5.75;;;;;;;9.33;100.00;100820.75;4934839;28;20469;-69
2022/05/21 00:55:52;;;;;;;7.85;4.93;;;;;;;9.30;100.00;100829.91;4920329;28;20128;-70
2022/05/21 01:01:07;;;;;;;9.60;4.85;;;;;;;9.30;100.00;100852.03;4957717;28;20278;-72
2022/05/21 01:03:33;;;;;;;8.00;4.40;;;;;;;9.18;100.00;100852.44;4934113;28;20038;-71
2022/05/21 01:06:02;;;;;;;6.27;4.00;;;;;;;9.12;100.00;100859.19;4936806;28;20774;-70
2022/05/21 01:08:27;;;;;;;12.18;5.05;;;;;;;9.07;100.00;100846.31;4919786;29;20090;-70
2022/05/21 01:10:57;;;;;;;5.20;3.50;;;;;;;9.07;100.00;100858.78;4939061;28;20312;-72
2022/05/21 01:13:26;;;;;;;9.82;4.50;;;;;;;9.14;100.00;100857.22;4936683;28;20506;-71
2022/05/21 01:15:53;;;;;;;12.88;4.93;;;;;;;9.16;100.00;100862.41;4939208;28;20058;-72
2022/05/21 01:18:19;;;;;;;7.57;4.88;;;;;;;9.26;100.00;100864.00;4953256;28;20141;-71
2022/05/21 01:20:54;;;;;;;7.28;4.50;;;;;;;9.29;100.00;100874.38;4921901;28;20387;-73
2022/05/21 01:23:20;;;;;;;9.52;5.05;;;;;;;9.34;100.00;100873.06;4953742;28;20039;-71
2022/05/21 01:25:48;;;;;;;8.80;4.63;;;;;;;9.34;100.00;100891.69;4937913;28;20499;-72
2022/05/21 01:28:15;;;;;;;8.07;4.30;;;;;;;9.26;100.00;100890.63;4953346;28;20519;-70
2022/05/21 01:30:47;;;;;;;13.25;3.90;;;;;;;9.24;100.00;100892.59;4936349;28;20194;-71
2022/05/21 01:33:16;;;;;;;5.32;3.35;;;;;;;9.23;100.00;100901.59;4953271;28;20031;-72
2022/05/21 01:35:44;;;;;;;6.63;3.28;;;;;;;9.07;100.00;100882.78;4936764;28;20043;-73
2022/05/21 01:38:11;;;;;;;9.23;3.97;;;;;;;9.01;100.00;100870.03;4920204;28;20038;-72
2022/05/21 01:40:37;;;;;;;5.25;3.45;;;;;;;8.98;100.00;100879.16;4936287;28;20473;-72
2022/05/21 01:45:51;;;;;;;11.75;4.32;;;;;;;8.81;100.00;100883.47;4941142;28;20491;-74
2022/05/21 01:48:19;;;;;;;6.35;3.75;;;;;;;8.79;100.00;100890.75;4935340;28;20027;-72
2022/05/21 01:50:45;;;;;;;8.00;4.03;;;;;;;8.80;100.00;100899.56;4921385;28;20488;-72
2022/05/21 01:53:11;;;;;;;10.20;4.00;;;;;;;8.79;100.00;100901.41;4935945;28;20105;-72
2022/05/21 01:55:38;;;;;;;9.32;4.00;;;;;;;8.82;100.00;100893.13;4952867;28;20130;-72
2022/05/21 01:58:03;;;;;;;12.30;4.43;;;;;;;8.77;100.00;100900.72;4946494;28;20196;-72
2022/05/21 02:00:32;;;;;;;8.07;4.70;;;;;;;8.85;100.00;100908.81;4952018;28;20031;-72
2022/05/21 02:02:57;;;;;;;9.50;4.00;;;;;;;8.88;100.00;100916.50;4953560;28;20030;-72
2022/05/21 02:05:23;;;;;;;7.70;4.30;;;;;;;8.91;100.00;100923.34;4935409;28;20647;-74
2022/05/21 02:07:48;;;;;;;15.00;4.60;;;;;;;8.92;100.00;100922.38;4954323;28;20031;-74
2022/05/21 02:10:13;;;;;;;5.97;3.77;;;;;;;9.01;100.00;100931.28;4934667;28;20034;-70
2022/05/21 02:12:39;;;;;;;7.87;4.30;;;;;;;9.08;100.00;100938.56;4951944;28;20710;-71
2022/05/21 02:15:05;;;;;;;10.80;4.87;;;;;;;9.07;100.00;100936.03;4954220;28;20030;-74
2022/05/21 02:17:32;;;;;;;13.48;5.35;;;;;;;9.19;100.00;100950.81;4934736;28;20385;-75
2022/05/21 02:19:57;;;;;;;9.40;5.03;;;;;;;9.25;100.00;100950.25;4937715;28;20436;-72
2022/05/21 02:22:23;;;;;;;22.93;4.90;;;;;;;9.15;100.00;100943.28;4951800;28;20027;-72
2022/05/21 02:24:49;;;;;;;11.73;5.00;;;;;;;9.17;100.00;100947.47;4923294;28;20480;-70
2022/05/21 02:27:15;;;;;;;14.10;5.45;;;;;;;9.19;100.00;100950.00;4930538;28;20027;-72
2022/05/21 02:29:42;;;;;;;11.63;5.03;;;;;;;9.25;100.00;100970.72;4953004;28;20024;-73
2022/05/21 02:32:08;;;;;;;7.50;4.82;;;;;;;9.20;100.00;100972.97;4920434;28;20027;-73
2022/05/21 02:34:34;;;;;;;9.80;4.30;;;;;;;9.26;100.00;100975.88;4952464;28;20518;-70
2022/05/21 02:39:43;;;;;;;10.07;5.30;;;;;;;9.34;100.00;100979.63;4953703;28;20171;-74
2022/05/21 02:42:43;;;;;;;11.07;4.60;;;;;;;9.42;100.00;100987.72;4953364;28;20031;-73
2022/05/21 02:44:55;;;;;;;;;;;;;;;9.34;100.00;100984.97;4954209;28;20066;-74
2022/05/21 02:47:21;;;;;;;;;;;;;;;9.36;100.00;100988.31;4952588;28;19957;-74
2022/05/21 02:49:46;;;;;;;9.88;4.65;;;;;;;9.38;100.00;100984.50;4953519;28;19914;-74
2022/05/21 02:52:12;;;;;;;17.80;4.77;;;;;;;9.25;100.00;100982.22;4953069;28;20070;-75
2022/05/21 02:54:38;;;;;;;13.57;4.20;;;;;;;9.38;100.00;100997.00;4935508;28;20473;-73
2022/05/21 02:57:03;;;;;;;10.77;4.63;;;;;;;9.43;100.00;100992.06;4936673;28;20035;-73
2022/05/21 02:59:29;;;;;;;8.40;4.75;;;;;;;9.46;100.00;101007.78;4934451;28;20134;-72
2022/05/21 03:01:55;;;;;;;9.32;4.93;;;;;;;9.45;100.00;101009.56;4937105;28;20026;-74
2022/05/21 03:04:21;;;;;;;11.27;4.80;;;;;;;9.39;100.00;101004.88;4918811;29;20035;-74
2022/05/21 03:06:46;;;;;;;9.82;5.38;;;;;;;9.52;100.00;101012.50;4952955;28;20031;-75
2022/05/21 03:11:55;;;;;;;11.25;6.43;;;;;;;9.57;100.00;101023.53;4953640;28;20045;-74
2022/05/21 03:14:21;;;;;;;9.13;5.60;;;;;;;9.63;100.00;101020.28;4934711;28;20031;-75
2022/05/21 03:16:46;;;;;;;10.20;5.57;;;;;;;9.64;100.00;101019.28;4938178;28;20038;-74
2022/05/21 03:19:12;;;;;;;19.63;6.33;;;;;;;9.60;100.00;101007.28;4934795;28;20385;-75
2022/05/21 03:21:37;;;;;;;14.83;6.10;;;;;;;9.61;100.00;100998.28;4918472;28;20027;-75
2022/05/21 03:24:03;;;;;;;12.90;5.97;;;;;;;9.71;100.00;101016.88;4957261;28;20848;-74
2022/05/21 03:26:29;;;;;;;17.15;7.25;;;;;;;9.66;100.00;101011.97;4932827;28;20290;-71
2022/05/21 03:28:55;;;;;;;18.45;5.75;;;;;;;9.77;100.00;101015.44;4942981;28;20037;-75
2022/05/21 03:31:20;;;;;;;18.10;5.90;;;;;;;9.74;100.00;101011.25;4918442;29;20031;-71
2022/05/21 03:33:45;;;;;;;14.97;5.10;;;;;;;9.75;100.00;101022.75;4935361;28;20102;-75
2022/05/21 03:36:11;;;;;;;18.87;5.77;;;;;;;9.72;100.00;101011.41;4919387;28;20360;-74
2022/05/21 03:38:36;;;;;;;22.47;6.37;;;;;;;9.72;100.00;100999.91;4934124;28;20496;-73
2022/05/21 03:41:02;;;;;;;12.40;4.33;;;;;;;9.80;100.00;100988.47;4957892;28;20321;-74
2022/05/21 03:43:27;;;;;;;16.03;4.67;;;;;;;9.86;100.00;100987.88;4951567;28;20434;-72
2022/05/21 03:45:53;;;;;;;7.10;4.77;;;;;;;9.90;100.00;100991.88;4920520;28;20090;-72
2022/05/21 03:48:18;;;;;;;12.30;5.25;;;;;;;9.85;100.00;100983.50;4934712;28;20412;-70
2022/05/21 03:50:47;;;;;;;17.93;4.07;;;;;;;9.93;100.00;100991.59;4918510;28;20138;-71
2022/05/21 03:53:14;;;;;;;17.13;4.82;;;;;;;9.93;100.00;100984.44;4934314;28;20118;-74
2022/05/21 03:55:40;;;;;;;14.40;4.15;;;;;;;9.96;100.00;100983.28;4934904;28;20070;-71
2022/05/21 03:58:06;;;;;;;9.50;4.07;;;;;;;9.95;100.00;100992.28;4935470;28;20022;-72
2022/05/21 04:00:32;;;;;;;14.27;4.80;;;;;;;9.96;100.00;100988.63;4933662;28;20043;-71
2022/05/21 04:02:59;;;;;;;11.77;5.25;;;;;;;9.90;100.00;100986.56;4936212;28;20298;-71
2022/05/21 04:05:26;;;;;;;16.33;4.57;;;;;;;9.99;100.00;100990.97;4918115;29;20032;-72
2022/05/21 04:07:51;;;;;;;23.00;5.60;;;;;;;10.08;100.00;101000.72;4935980;28;20050;-72
2022/05/21 04:10:17;;;;;;;17.27;4.80;;;;;;;10.06;100.00;101005.38;4933636;28;20039;-72
2022/05/21 04:12:43;;;;;;;10.82;3.95;;;;;;;10.03;100.00;100989.69;4951772;28;20051;-75
2022/05/21 04:15:10;;;;;;;20.47;5.13;;;;;;;10.11;100.00;100995.13;4935245;28;20481;-72
2022/05/21 04:17:35;;;;;;;14.95;4.20;;;;;;;10.15;100.00;100996.47;4933895;28;20023;-72
2022/05/21 04:20:06;;;;;;;16.77;4.13;;;;;;;10.02;100.00;100982.69;4952437;28;20396;-72
2022/05/21 04:22:31;;;;;;;11.73;4.53;;;;;;;10.10;100.00;100988.09;4961322;22;20053;-72
2022/05/21 04:24:56;;;;;;;7.50;3.30;;;;;;;10.12;100.00;100975.44;4984797;28;20026;-73
2022/05/21 04:27:22;;;;;;;8.10;2.97;;;;;;;10.09;100.00;100970.41;4977211;28;20150;-72
2022/05/21 04:29:47;;;;;;;8.13;3.43;;;;;;;10.03;100.00;100968.34;4983343;28;20387;-73
2022/05/21 04:32:12;;;;;;;12.53;4.10;;;;;;;10.04;100.00;100954.00;5012582;28;20868;-73
2022/05/21 04:34:38;;;;;;;11.73;3.57;;;;;;;9.95;100.00;100949.63;4984143;28;20482;-73
2022/05/21 04:37:03;;;;;;;10.93;3.40;;;;;;;10.00;100.00;100949.16;4986009;28;20035;-72
2022/05/21 04:39:29;;;;;;;14.70;2.90;;;;;;;9.94;100.00;100945.25;4973556;28;20034;-74
2022/05/21 04:41:54;;;;;;;9.73;3.00;;;;;;;9.99;100.00;100924.28;4972942;28;20056;-73
2022/05/21 04:44:19;;;;;;;13.73;2.80;;;;;;;9.90;100.00;100922.53;4971049;28;20027;-73
2022/05/21 04:46:45;;;;;;;17.93;4.37;;;;;;;9.91;100.00;100918.91;4984993;28;20034;-73
2022/05/21 04:49:10;;;;;;;11.80;2.60;;;;;;;9.93;100.00;100911.59;4980512;28;20109;-73
2022/05/21 04:51:38;;;;;;;10.93;2.50;;;;;;;9.94;100.00;100915.94;4989230;28;20042;-73
2022/05/21 04:54:04;;;;;;;16.88;4.28;;;;;;;9.99;100.00;100915.47;4969731;28;20023;-73
2022/05/21 04:56:31;;;;;;;16.02;3.67;;;;;;;9.98;100.00;100913.81;4969390;28;20039;-72
2022/05/21 04:59:00;;;;;;;13.38;3.05;;;;;;;10.09;100.00;100916.19;4978907;28;20387;-72
2022/05/21 05:01:25;;;;;;;15.90;4.13;;;;;;;9.98;100.00;100906.63;4984193;28;20034;-73
2022/05/21 05:03:51;;;;;;;16.43;4.03;;;;;;;9.98;100.00;100901.28;4970611;28;20033;-73
2022/05/21 05:06:16;;;;;;;14.63;3.33;;;;;;;10.09;100.00;100917.06;4968359;28;20110;-72
2022/05/21 05:08:41;;;;;;;24.00;5.30;;;;;;;10.15;100.00;100927.09;4983360;28;20034;-73
2022/05/21 05:11:07;;;;;;;11.07;4.83;;;;;;;10.07;100.00;100913.69;4968432;28;20027;-72
2022/05/21 05:13:32;;;;;;;11.33;4.57;;;;;;;10.08;100.00;100922.53;4981184;28;20496;-72
2022/05/21 05:15:57;;;;;;;11.77;4.33;;;;;;;10.07;100.00;100924.38;4968262;28;20027;-73
2022/05/21 05:18:23;;;;;;;11.37;5.23;;;;;;;10.06;100.00;100922.69;4956679;28;20023;-72
2022/05/21 05:20:49;;;;;;;11.63;4.30;;;;;;;10.11;100.00;100931.09;4988692;28;20055;-74
2022/05/21 05:23:15;;;;;;;12.43;5.63;;;;;;;10.10;100.00;100926.72;4951716;28;20435;-72
2022/05/21 05:25:41;;;;;;;14.35;6.57;;;;;;;10.10;100.00;100936.56;4989239;28;20035;-73
2022/05/21 05:28:17;;;;;;;12.27;6.63;;;;;;;10.14;100.00;100935.28;4967822;28;20527;-73
2022/05/21 05:30:43;;;;;;;15.50;6.78;;;;;;;10.15;100.00;100950.28;4984139;28;20118;-73
2022/05/21 05:33:09;;;;;;;18.35;6.90;;;;;;;10.12;100.00;100948.75;4968753;28;20798;-74
2022/05/21 05:35:34;;;;;;;12.48;6.75;;;;;;;10.13;100.00;100953.09;4974966;28;20038;-72
2022/05/21 05:38:04;;;;;;;22.70;8.32;;;;;;;10.03;100.00;100957.69;4965928;28;20112;-72
2022/05/21 05:40:32;;;;;;;18.17;8.48;;;;;;;10.06;100.00;100959.19;4967184;28;20125;-73
2022/05/21 05:42:57;;;;;;;17.48;9.23;;;;;;;10.03;100.00;100955.00;4965586;28;20552;-73
2022/05/21 05:45:23;;;;;;;16.97;9.63;;;;;;;10.05;100.00;100962.88;4968694;28;20031;-72
2022/05/21 05:47:48;;;;;;;14.87;10.17;;;;;;;10.12;100.00;100963.94;4967578;28;20043;-73
2022/05/21 05:50:14;;;;;;;16.67;8.90;;;;;;;10.07;100.00;100972.41;4947915;28;20189;-73
2022/05/21 05:52:39;;;;;;;15.20;9.03;;;;;;;10.14;100.00;100973.44;4973707;28;20041;-73
2022/05/21 05:55:05;;;;;;;18.83;11.68;;;;;;;10.11;100.00;100973.78;4951294;28;20391;-73
2022/05/21 05:57:30;;;;;;;25.05;12.27;;;;;;;10.11;100.00;100979.09;4967599;28;20462;-73
2022/05/21 05:59:56;;;;;;;20.67;11.53;;;;;;;10.19;100.00;100985.50;4983426;28;20035;-72
2022/05/21 06:05:17;;;;;;;23.48;13.20;;;;;;;10.35;100.00;100978.47;4966681;28;20092;-73
2022/05/21 06:07:54;;;;;;;16.27;11.63;;;;;;;10.34;100.00;100984.81;4981256;28;20467;-73
2022/05/21 06:10:31;;;;;;;27.02;12.70;;;;;;;10.37;100.00;100983.66;4968211;28;20651;-72
2022/05/21 06:12:58;;;;;;;17.08;10.98;;;;;;;10.34;100.00;100975.97;4982175;28;20038;-71
2022/05/21 06:15:25;;;;;;;14.45;11.70;;;;;;;10.34;100.00;100994.66;4977713;28;20034;-73
2022/05/21 06:17:51;;;;;;;;;;;;;;;10.37;100.00;100983.66;4997816;28;20125;-72
2022/05/21 06:20:19;;;;;;;18.10;10.45;;;;;;;10.31;100.00;100981.63;4982326;28;19921;-72
2022/05/21 06:22:47;;;;;;;15.00;9.93;;;;;;;10.30;100.00;100993.28;4979903;28;20035;-72
2022/05/21 06:25:17;;;;;;;17.88;10.15;;;;;;;10.30;100.00;100998.59;4971745;28;20026;-72
2022/05/21 06:27:44;;;;;;;14.35;8.55;;;;;;;10.28;100.00;101000.59;4982471;28;20039;-74
2022/05/21 06:30:10;;;;;;;14.75;8.57;;;;;;;10.35;100.00;101005.19;4966582;28;20015;-71
2022/05/21 06:32:36;;;;;;;15.07;9.27;;;;;;;10.35;100.00;101009.69;4979531;28;20070;-71
2022/05/21 06:35:05;;;;;;;10.03;8.10;;;;;;;10.48;100.00;101023.44;4975086;28;20062;-72
2022/05/21 06:37:30;;;;;;;13.23;8.00;;;;;;;10.49;100.00;101013.63;4972556;28;20134;-73
2022/05/21 06:39:58;;;;;;;16.13;7.83;;;;;;;10.51;100.00;101008.94;4967468;28;20126;-71
2022/05/21 06:42:23;;;;;;;10.30;7.50;;;;;;;10.49;100.00;101018.97;4969580;28;20364;-74
2022/05/21 06:44:50;;;;;;;9.00;6.30;;;;;;;10.45;100.00;101006.91;4982691;28;20496;-72
2022/05/21 06:47:16;;;;;;;8.20;5.40;;;;;;;10.42;100.00;101008.06;4967455;28;20030;-73
2022/05/21 06:49:41;;;;;;;9.37;5.77;;;;;;;10.45;100.00;100999.75;4967538;28;20031;-73
2022/05/21 06:52:07;;;;;;;8.83;5.83;;;;;;;10.42;100.00;101021.41;4967525;28;20575;-72
2022/05/21 06:54:32;;;;;;;7.73;6.50;;;;;;;10.44;100.00;101019.44;4967637;28;20035;-73
2022/05/21 06:56:58;;;;;;;8.43;6.37;;;;;;;10.44;100.00;101019.44;4968559;28;20018;-72
2022/05/21 06:59:25;;;;;;;16.58;8.15;;;;;;;10.43;100.00;101022.25;4983373;28;20019;-73
2022/05/21 07:01:50;;;;;;;17.10;8.35;;;;;;;10.40;100.00;101017.22;4964140;28;20510;-73
2022/05/21 07:04:15;;;;;;;13.43;8.97;;;;;;;10.44;100.00;101023.91;4982984;28;20037;-74
2022/05/21 07:09:26;;;;;;;15.95;10.63;;;;;;;10.52;100.00;101042.69;4962818;28;20082;-73
2022/05/21 07:11:52;;;;;;;17.20;10.10;;;;;;;10.55;100.00;101045.03;4949906;28;20022;-73
2022/05/21 07:14:18;;;;;;;20.50;12.17;;;;;;;10.55;100.00;101043.19;4966372;28;20093;-73
2022/05/21 07:16:44;;;;;;;21.92;12.23;;;;;;;10.59;100.00;101056.25;4966965;28;20031;-72
2022/05/21 07:19:11;;;;;;;19.40;11.85;;;;;;;10.64;100.00;101064.63;4960969;28;20496;-73
2022/05/21 07:21:37;;;;;;;20.97;13.27;;;;;;;10.65;100.00;101066.28;4974569;28;20045;-75
2022/05/21 07:24:03;;;;;;;20.35;12.98;;;;;;;10.76;100.00;101079.41;4979078;28;20035;-73
2022/05/21 07:26:28;;;;;;;27.23;14.32;;;;;;;10.74;100.00;101081.38;4966264;28;20117;-75
2022/05/21 07:28:56;;;;;;;26.97;13.83;;;;;;;10.82;100.00;101084.13;4978366;28;20180;-72
2022/05/21 07:31:22;;;;;;;28.63;16.27;;;;;;;10.86;100.00;101085.47;4961918;28;20488;-72
2022/05/21 07:33:48;;;;;;;30.55;17.15;;;;;;;10.87;100.00;101086.34;4991287;28;20586;-75
2022/05/21 07:36:14;;;;;;;30.13;17.43;;;;;;;10.86;100.00;101088.13;4973544;28;20038;-72
2022/05/21 07:38:40;;;;;;;33.50;18.80;;;;;;;10.88;100.00;101088.81;4994222;28;20400;-72
2022/05/21 07:41:06;;;;;;;31.38;17.58;;;;;;;10.85;100.00;101102.50;4993798;28;20667;-73
2022/05/21 07:43:31;;;;;;;25.67;13.68;;;;;;;10.78;100.00;101104.13;4978927;28;20043;-74
2022/05/21 07:45:58;;;;;;;18.23;9.13;;;;;;;10.68;100.00;101108.72;4981180;28;20045;-72
2022/05/21 07:48:24;;;;;;;15.57;9.23;;;;;;;10.76;100.00;101109.59;4965923;28;20039;-73
2022/05/21 07:50:56;;;;;;;7.78;5.05;;;;;;;10.67;100.00;101099.84;4990061;28;20042;-72
2022/05/21 07:53:30;;;;;;;7.35;4.72;;;;;;;10.68;100.00;101120.25;4975248;28;20034;-73
2022/05/21 07:55:56;;;;;;;8.27;4.82;;;;;;;10.85;100.00;101123.88;4969142;28;20174;-73
2022/05/21 07:58:23;;;;;;;;;;;;;;;10.93;100.00;101118.59;4971443;28;20757;-72
2022/05/21 08:00:50;;;;;;;5.13;3.00;;;;;;;11.13;100.00;101129.91;4963903;28;19917;-74
2022/05/21 08:03:16;;;;;;;;;;;;;;;11.34;100.00;101131.41;4980047;28;20023;-72
2022/05/21 08:05:42;;;;;;;;;;;;;;;11.64;100.00;101148.78;4964946;28;19921;-73
2022/05/21 08:08:08;;;;;;;8.25;4.20;;;;;;;11.83;100.00;101139.66;4983928;28;20363;-72
2022/05/21 08:10:39;;;;;;;10.10;4.50;;;;;;;11.87;100.00;101145.50;4963621;28;20039;-73
2022/05/21 08:13:05;;;;;;;9.23;4.78;;;;;;;11.90;100.00;101142.56;4976490;28;20121;-72
2022/05/21 08:15:30;;;;;;;7.43;4.88;;;;;;;11.78;100.00;101134.78;4945827;28;20123;-74
2022/05/21 08:17:56;;;;;;;10.13;4.70;;;;;;;11.79;100.00;101133.78;4981439;28;20039;-72
2022/05/21 08:20:21;;;;;;;7.13;4.37;;;;;;;11.60;100.00;101113.47;4977212;28;20290;-73
2022/05/21 08:28:16;;;;;;;7.88;5.65;;;;;;;11.08;100.00;101094.81;5001151;28;20034;-73
2022/05/21 08:30:43;;;;;;;10.88;6.32;;;;;;;11.05;100.00;101086.25;4991751;28;20404;-73
2022/05/21 08:33:09;;;;;;;8.60;4.95;;;;;;;11.15;100.00;101092.34;4987274;28;20522;-74
2022/05/21 08:35:40;;;;;;;7.07;3.47;;;;;;;10.97;100.00;101082.53;4981143;28;20030;-74
2022/05/21 08:38:06;;;;;;;7.10;2.88;;;;;;;10.97;100.00;101079.88;4975552;28;20058;-72
2022/05/21 08:40:44;;;;;;;;;;;;;;;11.04;100.00;101076.59;4969495;28;20046;-72
2022/05/21 08:43:21;;;;;;;6.57;2.40;;;;;;;11.22;100.00;101076.53;4996484;28;19971;-72
2022/05/21 08:45:54;;;;;;;6.90;2.80;;;;;;;11.40;100.00;101059.41;4985792;28;20039;-73
2022/05/21 08:48:20;;;;;;;7.70;2.63;;;;;;;11.47;100.00;101061.44;4984634;28;20034;-72
2022/05/21 08:50:50;;;;;;;5.57;2.85;;;;;;;11.64;100.00;101065.88;4984936;28;20045;-72
2022/05/21 08:53:20;;;;;;;12.27;5.18;;;;;;;11.79;100.00;101061.56;4984637;28;20035;-72
2022/05/21 08:55:49;;;;;;;5.90;3.53;;;;;;;11.78;100.00;101054.53;4984796;28;20109;-72
2022/05/21 08:58:31;;;;;;;12.65;4.32;;;;;;;11.87;100.00;101051.88;4968142;28;20120;-72
2022/05/21 09:00:57;;;;;;;15.70;6.32;;;;;;;11.90;100.00;101030.19;4978834;28;20210;-72
2022/05/21 09:03:24;;;;;;;13.35;6.63;;;;;;;12.62;100.00;101068.72;4986778;28;20518;-72
2022/05/21 09:05:59;;;;;;;14.40;7.70;;;;;;;12.96;100.00;101070.38;4987313;28;20042;-72
2022/05/21 09:08:34;;;;;;;15.02;7.18;;;;;;;13.34;100.00;101067.94;4987610;28;20034;-72
2022/05/21 09:11:11;;;;;;;19.30;7.75;;;;;;;13.57;100.00;101043.88;4983317;28;20034;-73
2022/05/21 09:13:55;;;;;;;18.70;7.07;;;;;;;13.54;100.00;101016.59;4969452;28;20042;-73
2022/05/21 09:19:08;;;;;;;25.05;9.40;;;;;;;13.47;100.00;100977.06;4979911;28;20030;-73
2022/05/21 09:21:37;;;;;;;18.23;6.68;;;;;;;13.41;100.00;100963.50;5002516;28;20062;-74
2022/05/21 09:24:05;;;;;;;12.77;6.03;;;;;;;13.17;100.00;100959.06;4983988;28;20041;-73
2022/05/21 09:26:51;;;;;;;13.52;7.10;;;;;;;13.29;100.00;100953.16;4973310;28;20019;-73
2022/05/21 09:29:25;;;;;;;16.88;7.55;;;;;;;14.46;100.00;100993.28;4945191;28;20162;-73
2022/05/21 09:31:54;;;;;;;16.17;7.20;;;;;;;15.33;100.00;100970.34;4966371;28;20042;-74
2022/05/21 09:34:31;;;;;;;16.27;6.00;;;;;;;16.33;100.00;100952.53;4968496;28;20567;-74
2022/05/21 09:36:59;;;;;;;14.35;5.72;;;;;;;16.58;100.00;100923.28;4983614;28;20030;-74
2022/05/21 09:39:33;;;;;;;12.23;4.30;;;;;;;16.71;100.00;100892.88;4979582;28;20114;-74
2022/05/21 09:45:27;;;;;;;17.77;5.35;;;;;;;15.52;100.00;100888.19;4993149;28;20499;-74
2022/05/21 09:48:06;;;;;;;11.45;4.38;;;;;;;15.04;100.00;100891.41;5001567;28;20050;-74
2022/05/21 09:50:53;;;;;;;12.45;4.25;;;;;;;14.87;100.00;100888.09;4992419;28;20510;-74
2022/05/21 09:53:25;;;;;;;10.90;4.03;;;;;;;14.86;100.00;100921.34;4970723;28;20046;-74
2022/05/21 09:56:17;;;;;;;21.85;4.53;;;;;;;15.07;100.00;100928.66;5000727;28;20038;-74
2022/05/21 09:58:46;;;;;;;11.77;3.78;;;;;;;14.47;100.00;100918.88;5001403;28;20042;-74
2022/05/21 10:01:32;;;;;;;18.17;4.25;;;;;;;14.49;100.00;100939.22;4975797;28;20019;-73
2022/05/21 10:04:00;;;;;;;11.98;4.05;;;;;;;14.53;100.00;100942.34;4967839;28;20517;-73
2022/05/21 10:06:34;;;;;;;13.73;5.07;;;;;;;14.25;100.00;100959.06;4967283;28;20039;-73
2022/05/21 10:12:27;;;;;;;8.40;3.55;;;;;;;12.84;100.00;101010.09;4979333;28;20121;-73
2022/05/21 10:14:58;;;;;;;5.57;2.20;;;;;;;12.60;100.00;101024.38;4979482;28;20114;-73
2022/05/21 10:17:31;;;;;;;10.98;2.88;;;;;;;12.47;100.00;101032.91;4968685;28;20102;-73
2022/05/21 10:20:18;;;;;;;5.93;1.73;;;;;;;12.62;100.00;101031.25;4982692;28;20054;-73
2022/05/21 10:22:53;;;;;;;7.93;1.80;;;;;;;13.49;100.00;101046.63;4966937;28;20213;-74
2022/05/21 10:25:21;;;;;;;5.03;2.00;;;;;;;14.55;100.00;101061.25;4967046;28;20891;-74
2022/05/21 10:28:05;;;;;;;3.38;1.85;;;;;;;15.08;100.00;101037.06;4968564;28;20803;-73
2022/05/21 10:30:42;;;;;;;2.20;1.40;;;;;;;15.97;100.00;101008.16;4977923;28;20038;-73
2022/05/21 10:33:23;;;;;;;2.55;1.30;;;;;;;16.16;100.00;100970.84;4979509;28;20045;-73
2022/05/21 10:35:59;;;;;;;1.60;1.25;;;;;;;16.15;100.00;100934.97;4961517;28;20042;-74
2022/05/21 10:38:53;;;;;;;5.32;1.45;;;;;;;16.13;100.00;100938.91;4986266;28;20034;-75
2022/05/21 10:41:49;;;;;;;7.70;1.90;;;;;;;15.94;100.00;100918.84;4979301;28;20034;-74
2022/05/21 10:44:45;;;;;;;8.10;1.85;;;;;;;15.08;100.00;100933.03;4980001;28;20404;-74
2022/05/21 10:47:52;;;;;;;6.43;3.30;;;;;;;14.73;100.00;100950.75;4976588;28;20480;-74
2022/05/21 10:50:36;;;;;;;4.63;2.25;;;;;;;14.55;100.00;100972.59;4949841;28;20034;-73
2022/05/21 10:53:07;;;;;;;9.35;3.22;;;;;;;14.59;100.00;101019.56;4968881;28;20072;-74
2022/05/21 10:55:44;;;;;;;12.05;3.10;;;;;;;14.27;100.00;101008.06;4974573;28;20067;-73
2022/05/21 10:58:28;;;;;;;9.90;3.20;;;;;;;14.56;100.00;101057.53;4975694;28;20101;-73
2022/05/21 11:01:06;;;;;;;11.18;3.33;;;;;;;14.16;100.00;101040.69;4966231;28;20046;-73
2022/05/21 11:03:53;;;;;;;8.23;2.75;;;;;;;14.98;100.00;101056.13;4966481;28;20384;-73
2022/05/21 11:06:55;;;;;;;13.65;3.08;;;;;;;16.66;100.00;101028.25;4968944;28;20090;-74
2022/05/21 11:09:51;;;;;;;7.65;3.33;;;;;;;15.60;100.00;100966.94;4981314;28;20039;-73
2022/05/21 11:12:32;;;;;;;11.35;3.22;;;;;;;15.48;100.00;100973.03;4966141;28;20030;-73
2022/05/21 11:15:08;;;;;;;9.95;3.97;;;;;;;15.50;100.00;100995.16;4994202;28;20507;-74
2022/05/21 11:17:59;;;;;;;7.78;4.15;;;;;;;15.19;100.00;101005.16;4979278;28;20042;-74
2022/05/21 11:20:30;;;;;;;8.52;2.65;;;;;;;14.80;100.00;100966.94;4949754;28;20041;-74
2022/05/21 11:23:01;;;;;;;7.13;2.60;;;;;;;14.53;100.00;100993.38;4967917;28;20042;-73
2022/05/21 11:25:55;;;;;;;13.63;2.35;;;;;;;14.53;100.00;100988.84;4990849;28;20178;-73
2022/05/21 11:28:37;;;;;;;8.10;2.72;;;;;;;14.24;100.00;101011.09;4974918;28;20050;-74
2022/05/21 11:31:12;;;;;;;8.02;2.47;;;;;;;14.00;100.00;101028.25;4983967;28;20113;-74
2022/05/21 11:39:15;;;;;;;8.98;2.70;;;;;;;13.74;100.00;101068.78;4960548;28;20037;-74
2022/05/21 11:41:58;;;;;;;11.82;4.10;;;;;;;13.85;100.00;101087.19;4944130;28;20075;-74
2022/05/21 11:44:56;;;;;;;12.00;3.65;;;;;;;14.05;100.00;101087.59;5000651;28;20045;-74
2022/05/21 11:47:22;;;;;;;7.75;2.58;;;;;;;14.30;100.00;101101.69;5002808;28;20034;-73
2022/05/21 11:50:00;;;;;;;11.70;2.63;;;;;;;15.21;100.00;101091.03;4978682;28;20023;-74
2022/05/21 11:52:31;;;;;;;6.90;2.20;;;;;;;15.65;100.00;101043.59;4985840;28;20282;-73
2022/05/21 11:54:56;;;;;;;9.60;2.03;;;;;;;15.52;100.00;101004.75;4985945;28;20031;-73
2022/05/21 11:57:36;;;;;;;12.30;2.20;;;;;;;15.00;100.00;100949.25;4980021;28;20880;-73
2022/05/21 12:00:05;;;;;;;6.40;2.30;;;;;;;14.33;100.00;100907.13;4970559;28;20027;-74
2022/05/21 12:02:58;;;;;;;5.88;1.85;;;;;;;14.80;100.00;100934.69;4997382;28;20031;-73